Time;durP1;ratioP1;P1;durP2;ratioP2;P2;SDS_P1;SDS_P2;PMS_P1;PMS_P2;Temp;Humidity;BMP_temperature;BMP_pressure;BME280_temperature;BME280_humidity;BME280_pressure;Samples;Min_cycle;Max_cycle;Signal;HPM_P1;HPM_P2
2023/01/28 00:00:27;;;;;;;7.20;4.40;;;4.80;91.20;;;;;;5034901;28;20080;-83
2023/01/28 00:02:52;;;;;;;7.97;4.53;;;4.80;91.20;;;;;;5035098;28;20029;-82
2023/01/28 00:05:18;;;;;;;8.80;5.10;;;4.80;91.10;;;;;;5052471;28;20028;-83
2023/01/28 00:07:43;;;;;;;7.77;4.57;;;4.90;91.10;;;;;;5051738;28;20048;-82
2023/01/28 00:10:10;;;;;;;8.10;4.60;;;4.80;91.10;;;;;;5051612;28;20044;-83
2023/01/28 00:12:36;;;;;;;8.07;4.50;;;4.80;91.00;;;;;;5051484;28;20021;-83
2023/01/28 00:15:01;;;;;;;9.00;4.90;;;4.80;91.00;;;;;;5035088;28;20040;-83
2023/01/28 00:17:27;;;;;;;7.43;4.53;;;4.80;91.00;;;;;;5051598;28;20029;-83
2023/01/28 00:19:53;;;;;;;8.67;5.03;;;4.90;91.00;;;;;;5034489;28;20370;-83
2023/01/28 00:22:19;;;;;;;9.20;5.53;;;4.80;90.90;;;;;;5034595;28;20029;-83
2023/01/28 00:24:45;;;;;;;7.70;4.40;;;4.90;91.00;;;;;;5034869;28;20474;-83
2023/01/28 00:27:11;;;;;;;9.00;4.83;;;4.90;91.00;;;;;;5034613;28;20048;-82
2023/01/28 00:29:37;;;;;;;9.30;5.03;;;4.80;91.00;;;;;;5035231;28;20516;-83
2023/01/28 00:32:03;;;;;;;7.97;4.57;;;4.90;91.00;;;;;;5052896;28;20029;-83
2023/01/28 00:34:28;;;;;;;8.53;4.83;;;4.80;91.00;;;;;;5051773;28;20032;-82
2023/01/28 00:36:57;;;;;;;8.33;4.70;;;4.90;91.00;;;;;;5037624;28;20036;-82
2023/01/28 00:39:24;;;;;;;9.20;5.10;;;4.90;91.00;;;;;;5055085;28;20120;-82
2023/01/28 00:41:51;;;;;;;8.80;5.30;;;4.80;91.00;;;;;;5054742;28;20025;-84
2023/01/28 00:44:17;;;;;;;8.40;5.13;;;4.80;91.00;;;;;;5054874;28;20451;-83
2023/01/28 00:46:43;;;;;;;11.23;6.27;;;4.90;91.10;;;;;;5054883;28;20033;-83
2023/01/28 00:49:08;;;;;;;8.67;4.80;;;4.80;91.10;;;;;;5054933;28;20452;-83
2023/01/28 00:51:35;;;;;;;8.10;5.13;;;4.80;91.00;;;;;;5054605;28;20087;-83
2023/01/28 00:54:01;;;;;;;9.17;5.47;;;4.90;91.10;;;;;;5054211;28;20029;-83
2023/01/28 00:56:26;;;;;;;9.43;5.33;;;4.80;91.10;;;;;;5054552;28;20116;-83
2023/01/28 00:58:53;;;;;;;11.17;6.13;;;4.80;91.10;;;;;;5055545;28;20029;-83
2023/01/28 01:01:24;;;;;;;10.20;5.67;;;4.80;91.10;;;;;;5054189;28;20049;-82
2023/01/28 01:03:56;;;;;;;10.80;6.33;;;4.90;91.10;;;;;;5054057;28;20060;-83
2023/01/28 01:06:23;;;;;;;10.13;5.83;;;4.80;91.00;;;;;;5053591;28;20028;-83
2023/01/28 01:08:49;;;;;;;11.13;6.33;;;4.90;91.10;;;;;;5054338;28;20029;-83
2023/01/28 01:11:15;;;;;;;10.03;5.93;;;4.80;91.10;;;;;;5055523;28;20021;-83
2023/01/28 01:13:41;;;;;;;10.27;5.87;;;4.80;91.10;;;;;;5054430;28;20037;-83
2023/01/28 01:16:15;;;;;;;11.53;7.03;;;4.80;91.10;;;;;;5054036;28;20045;-83
2023/01/28 01:18:41;;;;;;;10.50;5.80;;;4.80;91.10;;;;;;5053657;28;20389;-83
2023/01/28 01:21:12;;;;;;;10.93;5.90;;;4.80;91.00;;;;;;5037380;28;20021;-83
2023/01/28 01:23:38;;;;;;;11.10;6.50;;;4.70;91.00;;;;;;5053907;28;20025;-83
2023/01/28 01:26:05;;;;;;;12.30;6.47;;;4.70;91.00;;;;;;5053678;28;20099;-83
2023/01/28 01:28:31;;;;;;;11.27;6.13;;;4.80;90.90;;;;;;5053721;28;20083;-83
2023/01/28 01:31:02;;;;;;;11.53;6.67;;;4.70;90.90;;;;;;5053609;28;20032;-83
2023/01/28 01:33:29;;;;;;;11.10;6.33;;;4.70;90.80;;;;;;5053901;28;20025;-82
2023/01/28 01:35:55;;;;;;;11.33;6.43;;;4.70;90.80;;;;;;5037168;28;20036;-83
2023/01/28 01:38:21;;;;;;;14.50;7.40;;;4.70;90.80;;;;;;5053410;28;20497;-83
2023/01/28 01:40:46;;;;;;;11.73;6.30;;;4.70;90.80;;;;;;5053787;28;20032;-84
2023/01/28 01:43:21;;;;;;;11.40;6.80;;;4.70;90.80;;;;;;5054682;28;20025;-83
2023/01/28 01:45:59;;;;;;;11.60;6.53;;;4.70;90.80;;;;;;5053088;28;20025;-83
2023/01/28 01:48:34;;;;;;;11.07;6.63;;;4.70;90.80;;;;;;5053733;28;20025;-83
2023/01/28 01:51:08;;;;;;;10.43;6.37;;;4.70;90.80;;;;;;5053801;28;20025;-84
2023/01/28 01:53:36;;;;;;;11.05;6.28;;;4.60;90.80;;;;;;5055125;28;20096;-83
2023/01/28 01:56:05;;;;;;;11.33;6.43;;;4.60;90.60;;;;;;5053724;28;20029;-82
2023/01/28 01:58:35;;;;;;;10.23;5.50;;;4.60;90.60;;;;;;5053392;28;20033;-82
2023/01/28 02:01:01;;;;;;;10.13;6.03;;;4.60;90.50;;;;;;5052998;28;20053;-82
2023/01/28 02:03:45;;;;;;;10.67;5.50;;;4.60;90.50;;;;;;5053445;28;20104;-82
2023/01/28 02:06:12;;;;;;;9.23;5.22;;;4.60;90.50;;;;;;5054351;28;20115;-82
2023/01/28 02:08:37;;;;;;;9.93;5.53;;;4.60;90.40;;;;;;5038494;28;20033;-82
2023/01/28 02:11:06;;;;;;;9.73;5.70;;;4.60;90.20;;;;;;5038371;28;20044;-82
2023/01/28 02:13:40;;;;;;;9.70;5.33;;;4.60;90.20;;;;;;5053240;28;20029;-82
2023/01/28 02:16:07;;;;;;;9.05;5.50;;;4.60;90.10;;;;;;5053424;28;20377;-83
2023/01/28 02:18:33;;;;;;;11.07;5.27;;;4.60;89.80;;;;;;5054334;28;20091;-83
2023/01/28 02:21:14;;;;;;;8.70;5.03;;;4.50;89.70;;;;;;5052815;28;20052;-83
2023/01/28 02:24:14;;;;;;;9.47;4.90;;;4.50;89.70;;;;;;5054448;28;20477;-83
2023/01/28 02:27:02;;;;;;;9.70;4.93;;;4.50;89.50;;;;;;5037321;28;20045;-81
2023/01/28 02:29:52;;;;;;;10.40;5.63;;;4.50;89.80;;;;;;5052433;28;20067;-83
2023/01/28 02:32:49;;;;;;;11.37;6.23;;;4.50;89.90;;;;;;5052918;28;20466;-83
2023/01/28 02:35:30;;;;;;;10.03;5.50;;;4.40;90.00;;;;;;5053521;28;20024;-83
2023/01/28 02:38:09;;;;;;;10.93;6.43;;;4.40;90.00;;;;;;5052666;28;20027;-83
2023/01/28 02:43:38;;;;;;;11.13;6.17;;;4.40;90.20;;;;;;5053822;28;20044;-83
2023/01/28 02:48:55;;;;;;;12.27;6.67;;;4.30;90.30;;;;;;5053636;28;20082;-83
2023/01/28 02:51:33;;;;;;;12.63;7.00;;;4.30;90.40;;;;;;5052923;28;20111;-83
2023/01/28 02:54:38;;;;;;;12.43;6.70;;;4.30;90.40;;;;;;5052540;28;20087;-83
2023/01/28 02:57:23;;;;;;;14.07;7.70;;;4.30;90.50;;;;;;5022011;28;20574;-83
2023/01/28 03:00:17;;;;;;;12.63;6.97;;;4.30;90.50;;;;;;5053891;28;20045;-83
2023/01/28 03:02:53;;;;;;;12.73;7.30;;;4.30;90.50;;;;;;5052455;28;20481;-83
2023/01/28 03:05:35;;;;;;;12.87;7.53;;;4.20;90.50;;;;;;5052151;28;20090;-83
2023/01/28 03:09:21;;;;;;;13.20;7.30;;;4.20;90.60;;;;;;5053309;28;20041;-82
2023/01/28 03:39:09;;;;;;;12.85;6.68;;;4.10;90.70;;;;;;5052221;28;20044;-83
2023/01/28 03:41:34;;;;;;;13.47;7.27;;;4.10;90.60;;;;;;5051441;28;20034;-83
2023/01/28 03:46:44;;;;;;;14.57;7.85;;;4.10;90.50;;;;;;5052100;28;20104;-83
2023/01/28 03:49:10;;;;;;;13.77;6.73;;;4.10;90.50;;;;;;5051813;28;20449;-83
2023/01/28 03:51:35;;;;;;;13.43;7.90;;;4.10;90.50;;;;;;5051793;28;20103;-82
2023/01/28 03:54:01;;;;;;;12.33;6.67;;;4.10;90.50;;;;;;5052317;28;20036;-83
2023/01/28 03:56:31;;;;;;;12.70;7.03;;;4.10;90.50;;;;;;5035727;28;20440;-82
2023/01/28 03:58:56;;;;;;;13.37;8.07;;;4.10;90.50;;;;;;5051723;28;20469;-83
2023/01/28 04:01:23;;;;;;;12.33;7.03;;;4.10;90.40;;;;;;5051895;28;20041;-83
2023/01/28 04:03:48;;;;;;;14.00;8.07;;;4.10;90.10;;;;;;5051344;28;20033;-83
2023/01/28 04:06:14;;;;;;;14.53;7.40;;;4.10;90.10;;;;;;5034646;28;20124;-83
2023/01/28 04:08:44;;;;;;;13.60;7.33;;;4.00;90.00;;;;;;5035080;28;20036;-82
2023/01/28 04:11:18;;;;;;;13.53;7.60;;;4.00;90.10;;;;;;5054810;28;20491;-82
2023/01/28 04:13:48;;;;;;;9.95;5.05;;;4.20;90.20;;;;;;5039824;28;20036;-82
2023/01/28 04:16:16;;;;;;;11.13;6.40;;;4.10;90.10;;;;;;5055007;28;20013;-83
2023/01/28 04:18:42;;;;;;;12.87;6.73;;;4.10;90.20;;;;;;5056753;28;20036;-83
2023/01/28 04:21:08;;;;;;;12.17;6.37;;;4.20;90.20;;;;;;5054885;28;20058;-83
2023/01/28 04:23:34;;;;;;;12.37;6.67;;;4.10;90.20;;;;;;5038508;28;20111;-83
2023/01/28 04:26:00;;;;;;;15.23;7.17;;;4.10;90.20;;;;;;5055333;28;20039;-82
2023/01/28 04:28:26;;;;;;;14.23;7.97;;;4.10;90.20;;;;;;5054781;28;20482;-83
2023/01/28 04:30:52;;;;;;;13.83;7.37;;;4.10;89.90;;;;;;5055367;28;20033;-83
2023/01/28 04:33:18;;;;;;;15.80;7.83;;;4.00;89.50;;;;;;5054740;28;20060;-83
2023/01/28 04:35:44;;;;;;;14.27;7.93;;;4.00;88.80;;;;;;5037870;28;20063;-82
2023/01/28 04:38:09;;;;;;;13.27;7.77;;;4.00;88.40;;;;;;5054808;28;20021;-82
2023/01/28 04:40:35;;;;;;;13.00;7.37;;;4.00;88.10;;;;;;5055276;28;20033;-82
2023/01/28 04:43:00;;;;;;;14.23;7.80;;;4.00;88.50;;;;;;5055171;28;20120;-82
2023/01/28 04:45:26;;;;;;;12.97;7.20;;;3.90;88.60;;;;;;5056496;28;20460;-82
2023/01/28 04:47:52;;;;;;;13.63;7.67;;;4.00;88.80;;;;;;5061384;28;20120;-82
2023/01/28 04:50:17;;;;;;;13.33;7.43;;;4.10;88.70;;;;;;5061471;28;20087;-82
2023/01/28 04:52:43;;;;;;;12.93;7.10;;;4.00;88.80;;;;;;5061021;28;20058;-83
2023/01/28 04:55:10;;;;;;;11.70;6.67;;;4.00;88.80;;;;;;5059166;28;20029;-82
2023/01/28 04:57:35;;;;;;;10.93;5.90;;;4.00;88.90;;;;;;5039041;28;20171;-82
2023/01/28 05:00:01;;;;;;;12.00;7.03;;;3.90;88.80;;;;;;5056699;28;21075;-82
2023/01/28 05:02:27;;;;;;;12.73;7.17;;;4.00;88.20;;;;;;5055281;28;20064;-81
2023/01/28 05:04:52;;;;;;;13.50;7.20;;;4.00;88.00;;;;;;5038065;28;20082;-81
2023/01/28 05:07:18;;;;;;;13.80;8.13;;;3.90;87.60;;;;;;5056195;28;20068;-83
2023/01/28 05:09:43;;;;;;;12.70;6.97;;;4.00;87.30;;;;;;5038397;28;20025;-83
2023/01/28 05:12:09;;;;;;;13.40;7.63;;;3.80;87.40;;;;;;5054640;28;20052;-83
2023/01/28 05:14:35;;;;;;;13.27;7.50;;;3.90;87.70;;;;;;5037558;28;20033;-82
2023/01/28 05:17:00;;;;;;;12.40;7.40;;;3.90;87.50;;;;;;5037703;28;20117;-82
2023/01/28 05:19:26;;;;;;;11.47;6.70;;;3.80;87.50;;;;;;5037572;28;20090;-82
2023/01/28 05:21:51;;;;;;;12.50;7.03;;;3.80;87.50;;;;;;5053856;28;20060;-82
2023/01/28 05:24:17;;;;;;;12.30;7.17;;;3.80;87.70;;;;;;5053952;28;20037;-82
2023/01/28 05:26:43;;;;;;;14.03;7.60;;;3.80;87.70;;;;;;5055250;28;20044;-84
2023/01/28 05:29:08;;;;;;;11.67;7.00;;;3.80;87.30;;;;;;5056020;28;20064;-83
2023/01/28 05:31:34;;;;;;;12.27;6.93;;;3.80;87.50;;;;;;5037339;28;20392;-83
2023/01/28 05:34:00;;;;;;;13.53;7.73;;;3.80;87.60;;;;;;5054151;28;20025;-82
2023/01/28 05:36:25;;;;;;;11.80;7.03;;;3.80;87.40;;;;;;5036928;28;20040;-83
2023/01/28 05:38:51;;;;;;;15.27;8.67;;;3.80;87.40;;;;;;5037164;28;20063;-83
2023/01/28 05:41:16;;;;;;;13.93;7.80;;;3.80;86.80;;;;;;5054063;28;20029;-83
2023/01/28 05:43:42;;;;;;;14.90;8.37;;;3.80;86.60;;;;;;5037401;28;20372;-83
2023/01/28 05:46:08;;;;;;;13.03;6.77;;;3.80;86.30;;;;;;5055083;28;20029;-82
2023/01/28 05:48:33;;;;;;;14.67;7.73;;;3.70;86.30;;;;;;5037029;28;20025;-83
2023/01/28 05:50:59;;;;;;;12.53;6.93;;;3.70;86.50;;;;;;5053970;28;20025;-83
2023/01/28 05:53:25;;;;;;;13.50;6.90;;;3.70;86.60;;;;;;5054013;28;20036;-83
2023/01/28 05:55:52;;;;;;;12.97;7.23;;;3.70;86.60;;;;;;5053497;28;20029;-83
2023/01/28 05:58:19;;;;;;;13.13;7.27;;;3.70;86.70;;;;;;5037467;28;20056;-83
2023/01/28 06:00:44;;;;;;;12.57;6.90;;;3.70;86.90;;;;;;5052755;28;20049;-82
2023/01/28 06:03:10;;;;;;;11.87;6.40;;;3.70;87.00;;;;;;5053736;28;20358;-83
2023/01/28 06:05:36;;;;;;;13.47;7.07;;;3.70;87.00;;;;;;5052766;28;20384;-83
2023/01/28 06:08:02;;;;;;;14.27;7.33;;;3.70;86.90;;;;;;5036834;28;20041;-83
2023/01/28 06:10:27;;;;;;;13.10;6.60;;;3.70;87.10;;;;;;5036746;28;20025;-82
2023/01/28 06:12:53;;;;;;;12.63;6.70;;;3.70;87.20;;;;;;5053469;28;20029;-83
2023/01/28 06:15:18;;;;;;;14.37;7.93;;;3.70;87.20;;;;;;5053061;28;20040;-83
2023/01/28 06:17:44;;;;;;;14.07;7.37;;;3.60;87.10;;;;;;5036712;28;20029;-82
2023/01/28 06:20:10;;;;;;;12.97;6.93;;;3.60;87.00;;;;;;5036818;28;20048;-83
2023/01/28 06:22:36;;;;;;;14.33;7.80;;;3.70;87.00;;;;;;5052653;28;20167;-82
2023/01/28 06:25:02;;;;;;;14.97;8.10;;;3.60;86.70;;;;;;5053041;28;20359;-81
2023/01/28 06:27:27;;;;;;;13.33;7.50;;;3.60;86.30;;;;;;5054287;28;20037;-83
2023/01/28 06:29:53;;;;;;;15.47;7.93;;;3.60;86.60;;;;;;5036552;28;20083;-83
2023/01/28 06:32:19;;;;;;;15.43;8.47;;;3.50;86.70;;;;;;5052629;28;20497;-84
2023/01/28 06:34:45;;;;;;;14.80;7.90;;;3.60;86.40;;;;;;5052850;28;20120;-84
2023/01/28 06:37:14;;;;;;;16.47;8.53;;;3.50;86.50;;;;;;5052810;28;20174;-84
2023/01/28 06:39:39;;;;;;;14.80;8.30;;;3.60;86.70;;;;;;5052346;28;20036;-83
2023/01/28 06:42:05;;;;;;;15.03;7.53;;;3.50;86.60;;;;;;5053859;28;20373;-83
2023/01/28 06:44:31;;;;;;;14.37;7.80;;;3.60;86.70;;;;;;5052447;28;20028;-83
2023/01/28 06:46:56;;;;;;;14.17;8.10;;;3.60;86.30;;;;;;5052604;28;20131;-84
2023/01/28 06:49:22;;;;;;;15.13;8.50;;;3.50;85.70;;;;;;5035797;28;20116;-83
2023/01/28 06:51:48;;;;;;;15.47;8.57;;;3.50;85.70;;;;;;5036883;28;20027;-83
2023/01/28 06:54:14;;;;;;;15.17;8.13;;;3.50;86.00;;;;;;5038491;28;20203;-85
2023/01/28 06:56:39;;;;;;;13.63;7.30;;;3.50;86.20;;;;;;5061573;28;20083;-83
2023/01/28 06:59:05;;;;;;;12.13;7.10;;;3.50;86.30;;;;;;5022885;28;20395;-84
2023/01/28 07:01:33;;;;;;;13.17;7.17;;;3.50;86.20;;;;;;5063717;28;20346;-85
2023/01/28 07:03:59;;;;;;;16.07;8.43;;;3.50;86.20;;;;;;5014660;28;20022;-84
2023/01/28 07:06:24;;;;;;;16.83;9.97;;;3.40;86.00;;;;;;4998274;28;20025;-84
2023/01/28 07:08:50;;;;;;;15.90;8.80;;;3.40;85.00;;;;;;4999234;28;20095;-84
2023/01/28 07:11:16;;;;;;;15.03;8.20;;;3.40;85.60;;;;;;5015823;28;20029;-84
2023/01/28 07:13:42;;;;;;;15.30;8.83;;;3.40;85.60;;;;;;5033547;28;20168;-84
2023/01/28 07:16:08;;;;;;;13.73;7.73;;;3.40;85.60;;;;;;4999437;28;20086;-84
2023/01/28 07:18:33;;;;;;;15.97;9.23;;;3.40;85.30;;;;;;5015363;28;20116;-84
2023/01/28 07:20:59;;;;;;;13.13;7.80;;;3.40;85.50;;;;;;4998957;28;20114;-84
2023/01/28 07:23:25;;;;;;;16.53;8.87;;;3.40;85.60;;;;;;5045062;28;20037;-84
2023/01/28 07:25:50;;;;;;;14.80;8.50;;;3.30;85.60;;;;;;5025509;28;20477;-84
2023/01/28 07:28:20;;;;;;;16.13;8.87;;;3.40;85.80;;;;;;5015507;28;20038;-84
2023/01/28 07:30:52;;;;;;;16.17;8.77;;;3.30;85.90;;;;;;5024448;28;20021;-85
2023/01/28 07:33:18;;;;;;;15.60;8.13;;;3.30;86.00;;;;;;5053632;28;20483;-84
2023/01/28 07:35:44;;;;;;;15.17;8.60;;;3.30;86.10;;;;;;5045230;28;20033;-84
2023/01/28 07:38:10;;;;;;;15.57;8.43;;;3.30;86.20;;;;;;5024156;28;20037;-84
2023/01/28 07:40:36;;;;;;;15.70;9.00;;;3.30;86.40;;;;;;5041615;28;20033;-84
2023/01/28 07:43:02;;;;;;;14.30;7.97;;;3.40;86.50;;;;;;5041951;28;20050;-82
2023/01/28 07:45:29;;;;;;;16.70;9.50;;;3.30;86.50;;;;;;5042563;28;20018;-83
2023/01/28 07:48:04;;;;;;;17.43;9.33;;;3.30;86.40;;;;;;5037841;28;20075;-82
2023/01/28 07:50:31;;;;;;;15.17;8.13;;;3.30;86.10;;;;;;5047537;28;20095;-82
2023/01/28 07:52:58;;;;;;;15.53;7.87;;;3.30;86.10;;;;;;5033770;28;20025;-82
2023/01/28 07:55:24;;;;;;;15.13;8.70;;;3.30;86.30;;;;;;5039457;28;20049;-83
2023/01/28 07:57:54;;;;;;;16.27;9.13;;;3.30;86.20;;;;;;5046847;28;20096;-81
2023/01/28 08:00:25;;;;;;;17.70;9.70;;;3.30;86.10;;;;;;5026966;28;20028;-82
2023/01/28 08:02:55;;;;;;;15.97;8.70;;;3.30;86.10;;;;;;5028437;28;20055;-83
2023/01/28 08:05:21;;;;;;;15.63;7.83;;;3.30;86.10;;;;;;5029087;28;20021;-83
2023/01/28 08:07:47;;;;;;;16.90;9.17;;;3.40;86.00;;;;;;5037846;28;20117;-83
2023/01/28 08:10:15;;;;;;;15.50;8.57;;;3.40;86.00;;;;;;5043240;28;20028;-83
2023/01/28 08:12:49;;;;;;;15.57;8.87;;;3.30;85.80;;;;;;5028612;28;20063;-83
2023/01/28 08:15:15;;;;;;;14.20;7.82;;;3.30;85.60;;;;;;5043127;28;20071;-83
2023/01/28 08:17:40;;;;;;;16.37;8.87;;;3.40;85.90;;;;;;5045549;28;20068;-83
2023/01/28 08:20:07;;;;;;;15.57;7.97;;;3.30;85.80;;;;;;5048923;28;20182;-83
2023/01/28 08:22:32;;;;;;;14.53;8.10;;;3.40;85.90;;;;;;5038143;28;20033;-83
2023/01/28 08:24:58;;;;;;;15.87;8.67;;;3.30;85.90;;;;;;5054958;28;20037;-83
2023/01/28 08:27:24;;;;;;;15.33;9.03;;;3.40;85.90;;;;;;5038377;28;20033;-84
2023/01/28 08:29:49;;;;;;;15.97;8.83;;;3.40;85.90;;;;;;5038101;28;20025;-86
2023/01/28 08:32:15;;;;;;;14.77;8.60;;;3.40;85.80;;;;;;5055277;28;20028;-82
2023/01/28 08:34:41;;;;;;;13.53;7.73;;;3.40;85.80;;;;;;5038157;28;20033;-82
2023/01/28 08:37:06;;;;;;;14.60;8.73;;;3.40;85.80;;;;;;5054155;28;20036;-82
2023/01/28 08:39:32;;;;;;;14.10;7.87;;;3.40;85.70;;;;;;5036161;28;20025;-82
2023/01/28 08:41:58;;;;;;;14.23;7.67;;;3.40;85.70;;;;;;5054302;28;20051;-82
2023/01/28 08:44:23;;;;;;;15.33;8.60;;;3.50;85.70;;;;;;5028030;28;20032;-82
2023/01/28 08:46:49;;;;;;;13.67;8.07;;;3.40;85.40;;;;;;5054213;28;20033;-82
2023/01/28 08:49:14;;;;;;;16.63;9.23;;;3.40;85.20;;;;;;5038306;28;20079;-82
2023/01/28 08:51:40;;;;;;;14.43;8.27;;;3.30;85.10;;;;;;5054316;28;20496;-83
2023/01/28 08:54:06;;;;;;;14.20;8.77;;;3.40;85.30;;;;;;5037681;28;20029;-82
2023/01/28 08:56:31;;;;;;;12.97;7.50;;;3.40;85.20;;;;;;5037443;28;20061;-82
2023/01/28 08:58:57;;;;;;;12.40;7.80;;;3.50;85.20;;;;;;5037902;28;20029;-82
2023/01/28 09:01:23;;;;;;;13.70;7.47;;;3.40;85.40;;;;;;5053414;28;20084;-82
2023/01/28 09:03:48;;;;;;;10.77;6.73;;;3.40;85.40;;;;;;5049841;28;20044;-82
2023/01/28 09:06:14;;;;;;;15.47;7.37;;;3.40;85.50;;;;;;5032508;28;20033;-82
2023/01/28 09:08:40;;;;;;;13.20;8.10;;;3.30;85.50;;;;;;5033388;28;20140;-82
2023/01/28 09:11:05;;;;;;;12.40;7.17;;;3.30;85.50;;;;;;5032703;28;20422;-82
2023/01/28 09:13:31;;;;;;;10.80;5.87;;;3.40;85.80;;;;;;5033241;28;20033;-82
2023/01/28 09:15:57;;;;;;;12.00;6.53;;;3.40;85.90;;;;;;5033697;28;20022;-82
2023/01/28 09:18:22;;;;;;;12.07;7.10;;;3.40;86.00;;;;;;5032943;28;20031;-82
2023/01/28 09:20:48;;;;;;;11.47;6.60;;;3.40;86.20;;;;;;5016606;28;20080;-82
2023/01/28 09:23:14;;;;;;;11.23;6.33;;;3.40;86.20;;;;;;5048787;28;20030;-82
2023/01/28 09:25:40;;;;;;;11.90;6.37;;;3.50;86.40;;;;;;5016564;28;20504;-82
2023/01/28 09:28:06;;;;;;;11.97;7.13;;;3.50;86.30;;;;;;5035141;28;20115;-82
2023/01/28 09:30:31;;;;;;;11.00;6.70;;;3.50;86.20;;;;;;5052859;28;20052;-82
2023/01/28 09:32:57;;;;;;;11.33;6.23;;;3.60;86.50;;;;;;5052750;28;20057;-82
2023/01/28 09:35:23;;;;;;;11.37;7.43;;;3.60;86.30;;;;;;5052312;28;20017;-82
2023/01/28 09:37:50;;;;;;;12.57;7.20;;;3.50;86.20;;;;;;5052566;28;20096;-82
2023/01/28 09:40:30;;;;;;;12.07;7.27;;;3.50;86.10;;;;;;5036149;28;20033;-82
2023/01/28 09:43:20;;;;;;;12.60;7.37;;;3.60;86.10;;;;;;5052593;28;20021;-83
2023/01/28 09:45:48;;;;;;;12.50;7.37;;;3.60;86.30;;;;;;5054171;28;20473;-83
2023/01/28 09:48:23;;;;;;;9.77;5.90;;;3.60;86.20;;;;;;5052526;28;20055;-83
2023/01/28 09:50:52;;;;;;;11.40;6.57;;;3.70;86.50;;;;;;5049501;28;20107;-83
2023/01/28 09:53:28;;;;;;;12.10;7.40;;;3.70;86.30;;;;;;5032387;28;20064;-83
2023/01/28 09:56:06;;;;;;;12.57;7.53;;;3.80;86.40;;;;;;5033695;28;20115;-83
2023/01/28 09:58:32;;;;;;;11.23;6.50;;;3.80;86.50;;;;;;5032555;28;20116;-82
2023/01/28 10:00:59;;;;;;;12.65;7.45;;;3.90;86.70;;;;;;5010792;28;1131676;-83
2023/01/28 10:03:46;;;;;;;12.10;7.20;;;4.00;86.80;;;;;;5054222;28;20036;-85
2023/01/28 10:06:42;;;;;;;10.27;6.33;;;4.10;86.70;;;;;;5046691;28;20083;-83
2023/01/28 10:09:29;;;;;;;11.30;6.60;;;4.10;86.60;;;;;;5032657;28;20057;-82
2023/01/28 10:12:10;;;;;;;11.20;6.63;;;4.20;86.30;;;;;;5034075;28;20029;-82
2023/01/28 10:15:00;;;;;;;10.33;6.17;;;4.20;85.80;;;;;;5033026;28;20021;-82
2023/01/28 10:17:30;;;;;;;10.60;6.60;;;4.30;85.80;;;;;;5033223;28;20084;-82
2023/01/28 10:20:07;;;;;;;10.77;6.60;;;4.30;85.70;;;;;;5032764;28;20075;-82
2023/01/28 10:22:48;;;;;;;10.73;5.73;;;4.40;85.90;;;;;;5033041;28;20022;-83
2023/01/28 10:25:27;;;;;;;10.80;6.30;;;4.40;85.80;;;;;;5034134;28;20470;-82
2023/01/28 10:27:52;;;;;;;10.83;6.23;;;4.40;85.60;;;;;;5032640;28;20481;-82
2023/01/28 10:30:19;;;;;;;11.00;6.43;;;4.60;85.70;;;;;;5034263;28;20071;-83
2023/01/28 10:33:20;;;;;;;9.87;5.70;;;4.60;85.60;;;;;;5041715;28;20409;-83
2023/01/28 10:35:47;;;;;;;9.40;5.47;;;4.70;85.50;;;;;;5050553;28;20045;-82
2023/01/28 10:38:16;;;;;;;8.80;5.57;;;4.70;85.30;;;;;;5036074;28;20025;-83
2023/01/28 10:40:42;;;;;;;11.73;6.03;;;4.90;85.30;;;;;;5048099;28;20706;-83
2023/01/28 10:43:08;;;;;;;9.07;5.33;;;4.80;85.10;;;;;;5050984;28;20477;-83
2023/01/28 10:45:41;;;;;;;8.80;4.53;;;4.80;84.90;;;;;;5042714;28;20025;-83
2023/01/28 10:48:33;;;;;;;12.40;4.93;;;4.90;85.10;;;;;;5043801;28;20029;-83
2023/01/28 10:51:03;;;;;;;8.77;5.20;;;4.90;85.20;;;;;;5040146;28;20040;-83
2023/01/28 10:53:40;;;;;;;8.47;4.70;;;5.00;85.30;;;;;;5032059;28;20462;-84
2023/01/28 10:56:27;;;;;;;8.17;4.83;;;5.10;84.80;;;;;;5052964;28;20474;-83
2023/01/28 10:59:05;;;;;;;8.17;4.27;;;5.20;85.10;;;;;;5053691;28;20112;-82
2023/01/28 11:01:43;;;;;;;8.87;4.90;;;5.30;84.20;;;;;;5054367;28;20114;-82
2023/01/28 11:04:22;;;;;;;9.03;4.57;;;5.40;83.80;;;;;;5040199;28;20041;-82
2023/01/28 11:06:58;;;;;;;5.77;3.53;;;5.60;84.50;;;;;;5053514;28;20064;-82
2023/01/28 11:09:33;;;;;;;8.03;4.03;;;5.70;84.80;;;;;;5045015;28;20085;-82
2023/01/28 11:12:19;;;;;;;7.43;4.13;;;6.00;85.50;;;;;;5044379;28;20462;-82
2023/01/28 11:14:57;;;;;;;6.03;3.60;;;6.30;85.50;;;;;;5043253;28;20013;-82
2023/01/28 11:17:26;;;;;;;6.80;4.73;;;6.60;85.70;;;;;;5035740;28;20107;-83
2023/01/28 11:19:58;;;;;;;7.30;3.97;;;6.90;86.00;;;;;;5033613;28;20033;-83
2023/01/28 11:22:34;;;;;;;5.40;3.33;;;7.30;86.30;;;;;;5032243;28;20025;-82
2023/01/28 11:25:31;;;;;;;6.80;4.23;;;7.60;85.60;;;;;;5033260;28;20034;-82
2023/01/28 11:27:58;;;;;;;6.43;3.80;;;8.00;85.20;;;;;;5032359;28;20045;-82
2023/01/28 11:30:49;;;;;;;6.10;3.90;;;8.40;85.80;;;;;;5033326;28;20029;-82
2023/01/28 11:33:16;;;;;;;6.03;3.58;;;8.80;84.80;;;;;;5031583;28;20060;-83
2023/01/28 11:35:51;;;;;;;5.75;3.70;;;9.20;86.00;;;;;;5031658;28;20058;-83
2023/01/28 11:38:19;;;;;;;5.15;3.00;;;9.80;86.60;;;;;;5016610;28;20026;-83
2023/01/28 11:40:53;;;;;;;4.55;2.90;;;10.60;86.30;;;;;;5032990;28;20371;-82
2023/01/28 11:43:27;;;;;;;3.75;2.55;;;11.40;84.40;;;;;;5033219;28;20096;-83
2023/01/28 11:46:12;;;;;;;3.95;2.70;;;12.00;83.60;;;;;;5031937;28;20032;-83
2023/01/28 11:48:42;;;;;;;4.93;2.83;;;12.50;81.70;;;;;;5033058;28;20045;-83
2023/01/28 11:51:11;;;;;;;4.95;3.45;;;12.90;79.30;;;;;;5031521;28;20025;-83
2023/01/28 11:53:53;;;;;;;4.90;3.25;;;13.10;76.40;;;;;;5031673;28;20029;-82
2023/01/28 11:56:39;;;;;;;4.25;3.10;;;13.50;74.90;;;;;;5031757;28;20052;-82
2023/01/28 11:59:20;;;;;;;5.28;2.70;;;13.80;72.70;;;;;;5031757;28;20501;-82
2023/01/28 12:02:00;;;;;;;4.15;2.90;;;13.90;73.10;;;;;;5031492;28;20076;-82
2023/01/28 12:05:10;;;;;;;5.63;2.78;;;14.20;69.80;;;;;;5032529;28;20470;-82
2023/01/28 12:07:44;;;;;;;3.78;2.88;;;14.70;68.20;;;;;;5013364;28;20046;-82
2023/01/28 12:10:21;;;;;;;4.75;3.10;;;15.00;67.80;;;;;;5033300;28;20037;-83
2023/01/28 12:12:53;;;;;;;3.80;3.03;;;15.40;66.00;;;;;;5032866;28;20026;-83
2023/01/28 12:15:40;;;;;;;4.18;3.40;;;15.60;63.90;;;;;;5032777;28;20021;-83
2023/01/28 12:18:33;;;;;;;4.28;3.20;;;15.80;62.90;;;;;;5032618;28;20017;-83
2023/01/28 12:21:07;;;;;;;4.35;3.08;;;15.90;60.50;;;;;;5033629;28;20409;-82
2023/01/28 12:24:02;;;;;;;4.00;3.33;;;15.70;59.20;;;;;;5033746;28;20033;-82
2023/01/28 12:27:02;;;;;;;4.47;3.10;;;15.40;58.30;;;;;;5050719;28;20084;-83
2023/01/28 12:29:46;;;;;;;4.85;3.45;;;15.00;58.00;;;;;;5051153;28;20120;-83
2023/01/28 12:32:37;;;;;;;;;;;14.60;57.70;;;;;;5056103;28;20553;-83
2023/01/28 12:35:43;;;;;;;5.22;3.00;;;14.20;57.00;;;;;;5054373;28;19912;-82
2023/01/28 12:38:41;;;;;;;6.10;4.20;;;14.00;58.10;;;;;;5055741;28;20095;-83
2023/01/28 12:41:08;;;;;;;6.22;3.95;;;13.90;58.60;;;;;;5054160;28;20074;-83
2023/01/28 12:43:49;;;;;;;4.70;3.40;;;14.40;59.30;;;;;;5053584;28;20029;-82
2023/01/28 12:46:38;;;;;;;5.25;3.55;;;15.00;58.40;;;;;;5055755;28;20032;-83
2023/01/28 12:49:30;;;;;;;5.10;3.13;;;15.70;58.60;;;;;;5054527;28;20040;-83
2023/01/28 12:52:20;;;;;;;4.75;2.15;;;16.50;57.90;;;;;;5054602;28;20025;-83
2023/01/28 12:55:14;;;;;;;4.15;2.95;;;17.20;56.20;;;;;;5056356;28;20021;-83
2023/01/28 12:57:40;;;;;;;3.85;3.15;;;17.10;54.30;;;;;;5029139;28;20393;-83
2023/01/28 13:00:29;;;;;;;5.28;3.35;;;16.70;52.80;;;;;;5054499;28;20028;-83
2023/01/28 13:03:23;;;;;;;5.57;3.53;;;16.00;52.40;;;;;;5054649;28;20049;-83
2023/01/28 13:05:53;;;;;;;4.65;3.40;;;15.30;52.70;;;;;;5055449;28;20021;-82
2023/01/28 13:08:24;;;;;;;6.13;3.53;;;14.70;53.20;;;;;;5055674;28;20037;-83
2023/01/28 13:10:51;;;;;;;5.68;3.85;;;14.10;53.30;;;;;;5055396;28;20393;-83
2023/01/28 13:13:31;;;;;;;6.40;4.72;;;13.60;53.50;;;;;;5055470;28;20029;-83
2023/01/28 13:15:57;;;;;;;5.82;4.10;;;13.30;53.80;;;;;;5053606;28;20070;-82
2023/01/28 13:18:33;;;;;;;7.35;5.10;;;13.00;54.30;;;;;;5054370;28;20032;-83
2023/01/28 13:21:01;;;;;;;7.13;4.80;;;12.80;53.90;;;;;;5053683;28;20017;-83
2023/01/28 13:23:29;;;;;;;7.13;5.10;;;12.70;54.00;;;;;;5054108;28;20028;-83
2023/01/28 13:25:56;;;;;;;7.53;4.97;;;12.50;54.20;;;;;;5054145;28;20358;-82
2023/01/28 13:28:32;;;;;;;8.50;5.55;;;12.40;54.40;;;;;;5053629;28;20479;-83
2023/01/28 13:31:19;;;;;;;8.75;5.95;;;12.20;54.20;;;;;;5054580;28;20385;-83
2023/01/28 13:34:00;;;;;;;8.65;6.18;;;12.30;54.70;;;;;;5054196;28;20021;-83
2023/01/28 13:36:44;;;;;;;8.70;5.53;;;12.60;54.90;;;;;;5054089;28;20028;-83
2023/01/28 13:39:13;;;;;;;8.13;5.53;;;13.10;55.20;;;;;;5055191;28;20017;-84
2023/01/28 13:42:06;;;;;;;7.78;5.35;;;13.80;54.80;;;;;;5052989;28;20473;-83
2023/01/28 13:44:34;;;;;;;6.68;4.82;;;14.40;54.00;;;;;;5053931;28;20496;-83